METAR AND TAF INFORMATION
METAR FOR MMMX
MMMX 130844Z 06006KT 10SM SCT220 15/06 A3043 NOSIG RMK 8/001 HZY
MMMX 130742Z 31007KT 10SM BKN080 BKN220 17/06 A3045 NOSIG RMK 8/032 HZY
MMMX 130646Z 32007KT 10SM BKN080 BKN220 18/06 A3045 NOSIG RMK 8/032 HZY
MMMX 130546Z 30010KT 10SM FEW020 BKN080 BKN220 18/06 A3047 NOSIG RMK SLP130 52020 918 8/532 HZY

TAF MMMX 130528Z 1306/1406 03006KT P6SM SCT080 BKN250 TX29/1321Z TN13/1312Z
FM131800 04015KT P6SM SCT020 BKN080 BKN250
FM140500 04007KT P6SM SCT080 BKN250

 AIRPORT MAP

 RUNWAY INFORMATION
Runway 05L Runway length 12966 ft Runway width 148 ft
Runway elevation 7309 ft Runway displaced threshold 1034 ft Runway heading 59
Runway 23R Runway length 12966 ft Runway width 148 ft
Runway elevation 7311 ft Runway displaced threshold 1641 ft Runway heading 239
Runway 05R Runway length 12795 ft Runway width 148 ft
Runway elevation 7316 ft Runway displaced threshold 1493 ft Runway heading 59
Runway 23L Runway length 12795 ft Runway width 148 ft
Runway elevation 7295 ft Runway displaced threshold 0 ft Runway heading 239

 AIRPORT FREQUENCIES
Type APP Name MEXICO APP Frequency 121.2 MHZ
Type ARR Name MEXICO ARR Frequency 129.6 MHZ
Type ATIS Name ATIS Frequency 127.65 MHZ
Type CLD Name MEXICO CLN Frequency 122.1 MHZ
Type DEP Name MEXICO DEP Frequency 120.5 MHZ
Type GND Name GND Frequency 121 MHZ
Type RDO Name MEXICO INF Frequency 126.9 MHZ
Type TWR Name MEXICO TWR Frequency 118.55 MHZ

 AIRPORT NEAR NAVIGATION AIDS
Type VOR-DME Name Mexico Frequency 115600 KHZ
Type NDB Name Plaza Frequency 370 KHZ
Type NDB Name Tepexpan Frequency 359 KHZ

-